createdAt,value
2022-12-01T00:00:07.801Z,50.40
2022-12-01T00:02:35.092Z,44.75
2022-12-01T00:05:02.367Z,45.63
2022-12-01T00:07:29.599Z,43.75
2022-12-01T00:10:15.256Z,47.53
2022-12-01T00:12:43.504Z,47.53
2022-12-01T00:15:13.796Z,49.13
2022-12-01T00:17:43.801Z,53.22
2022-12-01T00:20:11.276Z,47.13
2022-12-01T00:22:38.614Z,48.53
2022-12-01T00:25:06.036Z,49.70
2022-12-01T00:27:33.139Z,48.17
2022-12-01T00:30:00.304Z,50.75
2022-12-01T00:32:27.368Z,50.47
2022-12-01T00:34:54.528Z,59.67
2022-12-01T00:37:21.718Z,47.30
2022-12-01T00:39:49.138Z,52.10
2022-12-01T00:42:16.395Z,59.13
2022-12-01T00:44:44.022Z,54.63
2022-12-01T00:47:11.175Z,51.08
2022-12-01T00:49:38.360Z,54.05
2022-12-01T00:52:05.722Z,54.17
2022-12-01T00:54:32.817Z,51.95
2022-12-01T00:57:00.650Z,51.60
2022-12-01T00:59:27.748Z,47.80
2022-12-01T01:01:54.992Z,49.20
2022-12-01T01:04:22.332Z,49.47
2022-12-01T01:06:49.469Z,50.08
2022-12-01T01:09:16.997Z,52.67
2022-12-01T01:11:44.098Z,54.58
2022-12-01T01:14:11.226Z,56.42
2022-12-01T01:16:38.495Z,53.25
2022-12-01T01:19:05.760Z,55.58
2022-12-01T01:21:33.118Z,53.70
2022-12-01T01:24:00.272Z,52.20
2022-12-01T01:26:28.709Z,58.83
2022-12-01T01:29:00.229Z,52.17
2022-12-01T01:31:28.407Z,56.53
2022-12-01T01:33:56.524Z,54.20
2022-12-01T01:36:23.703Z,52.47
2022-12-01T01:38:51.652Z,55.10
2022-12-01T01:41:19.874Z,53.17
2022-12-01T01:43:51.737Z,55.85
2022-12-01T01:46:26.576Z,55.38
2022-12-01T01:49:01.643Z,51.97
2022-12-01T01:51:37.879Z,51.13
2022-12-01T01:54:07.547Z,49.42
2022-12-01T01:56:35.944Z,50.25
2022-12-01T01:59:03.413Z,55.70
2022-12-01T02:01:31.710Z,46.47
2022-12-01T02:03:58.900Z,53.25
2022-12-01T02:06:26.059Z,56.05
2022-12-01T02:08:53.169Z,51.90
2022-12-01T02:11:49.186Z,52.10
2022-12-01T02:14:31.617Z,50.10
2022-12-01T02:17:07.986Z,55.45
2022-12-01T02:19:35.090Z,54.65
2022-12-01T02:22:13.929Z,57.67
2022-12-01T02:24:41.087Z,60.38
2022-12-01T02:27:27.122Z,53.38
2022-12-01T02:30:08.555Z,56.17
2022-12-01T02:32:54.505Z,53.10
2022-12-01T02:35:25.633Z,56.20
2022-12-01T02:37:52.788Z,52.13
2022-12-01T02:40:23.117Z,53.35
2022-12-01T02:43:02.334Z,53.10
2022-12-01T02:45:29.654Z,57.72
2022-12-01T02:47:57.957Z,58.13
2022-12-01T02:50:26.485Z,62.35
2022-12-01T02:52:54.249Z,56.38
2022-12-01T02:55:21.495Z,59.63
2022-12-01T02:57:48.671Z,57.97
2022-12-01T03:00:16.794Z,55.00
2022-12-01T03:02:53.340Z,51.88
2022-12-01T03:05:29.743Z,49.35
2022-12-01T03:08:19.643Z,55.92
2022-12-01T03:10:53.760Z,59.28
2022-12-01T03:13:35.276Z,49.72
2022-12-01T03:16:06.809Z,53.42
2022-12-01T03:18:33.978Z,56.08
2022-12-01T03:21:06.986Z,59.63
2022-12-01T03:23:37.115Z,54.88
2022-12-01T03:26:07.099Z,61.53
2022-12-01T03:28:37.470Z,54.25
2022-12-01T03:31:07.274Z,57.55
2022-12-01T03:33:41.446Z,54.08
2022-12-01T03:36:34.956Z,58.53
2022-12-01T03:39:04.757Z,57.03
2022-12-01T03:41:39.692Z,54.70
2022-12-01T03:44:09.267Z,58.72
2022-12-01T03:46:42.433Z,63.50
2022-12-01T03:49:09.776Z,59.13
2022-12-01T03:51:43.369Z,58.38
2022-12-01T03:54:22.117Z,60.05
2022-12-01T03:57:01.014Z,60.75
2022-12-01T03:59:29.050Z,59.33
2022-12-01T04:01:56.323Z,54.97
2022-12-01T04:04:23.417Z,63.00
2022-12-01T04:06:51.175Z,54.67
2022-12-01T04:09:18.423Z,62.78
2022-12-01T04:12:04.255Z,62.88
2022-12-01T04:14:31.418Z,55.53
2022-12-01T04:16:58.498Z,49.53
2022-12-01T04:19:25.662Z,55.60
2022-12-01T04:21:52.752Z,56.08
2022-12-01T04:24:19.840Z,61.25
2022-12-01T04:26:47.006Z,65.68
2022-12-01T04:29:14.366Z,57.28
2022-12-01T04:31:41.867Z,65.60
2022-12-01T04:34:10.352Z,66.30
2022-12-01T04:36:37.518Z,62.08
2022-12-01T04:39:04.993Z,55.60
2022-12-01T04:41:32.162Z,60.17
2022-12-01T04:43:59.277Z,57.30
2022-12-01T04:46:26.452Z,61.40
2022-12-01T04:48:53.657Z,64.45
2022-12-01T04:51:21.370Z,55.83
2022-12-01T04:53:49.007Z,62.80
2022-12-01T04:56:16.469Z,51.67
2022-12-01T04:58:43.937Z,60.05
2022-12-01T05:01:12.888Z,57.83
2022-12-01T05:03:41.174Z,62.05
2022-12-01T05:06:10.082Z,61.45
2022-12-01T05:08:37.696Z,64.38
2022-12-01T05:11:07.631Z,55.47
2022-12-01T05:13:37.139Z,56.75
2022-12-01T05:16:05.124Z,62.22
2022-12-01T05:18:32.457Z,62.92
2022-12-01T05:20:59.698Z,62.60
2022-12-01T05:23:27.747Z,60.63
2022-12-01T05:25:54.847Z,64.03
2022-12-01T05:28:22.677Z,60.70
2022-12-01T05:30:49.967Z,59.92
2022-12-01T05:33:17.360Z,67.82
2022-12-01T05:35:44.540Z,62.58
2022-12-01T05:38:12.020Z,65.18
2022-12-01T05:40:39.270Z,64.47
2022-12-01T05:43:06.812Z,71.10
2022-12-01T05:45:34.637Z,59.30
2022-12-01T05:48:02.524Z,71.43
2022-12-01T05:50:30.518Z,56.95
2022-12-01T05:52:57.886Z,68.93
2022-12-01T05:55:25.114Z,57.35
2022-12-01T05:57:52.560Z,68.78
2022-12-01T06:00:20.213Z,74.85
2022-12-01T06:02:47.354Z,61.60
2022-12-01T06:05:14.454Z,63.78
2022-12-01T06:07:41.679Z,65.30
2022-12-01T06:10:09.971Z,60.97
2022-12-01T06:12:38.047Z,62.85
2022-12-01T06:15:06.160Z,65.28
2022-12-01T06:17:39.782Z,53.10
2022-12-01T06:20:08.006Z,66.80
2022-12-01T06:22:35.127Z,65.63
2022-12-01T06:25:02.337Z,67.80
2022-12-01T06:27:29.509Z,68.40
2022-12-01T06:29:56.877Z,63.13
2022-12-01T06:32:24.191Z,57.30
2022-12-01T06:34:51.671Z,53.38
2022-12-01T06:37:18.850Z,57.08
2022-12-01T06:39:46.046Z,57.85
2022-12-01T06:42:13.303Z,53.28
2022-12-01T06:44:40.441Z,49.92
2022-12-01T06:47:08.186Z,70.00
2022-12-01T06:49:35.838Z,61.95
2022-12-01T06:52:03.099Z,57.58
2022-12-01T06:54:30.297Z,79.35
2022-12-01T06:56:58.511Z,62.30
2022-12-01T06:59:26.117Z,57.22
2022-12-01T07:01:53.772Z,53.08
2022-12-01T07:04:21.035Z,57.90
2022-12-01T07:06:48.202Z,55.72
2022-12-01T07:09:15.415Z,53.20
2022-12-01T07:11:42.668Z,52.20
2022-12-01T07:14:16.403Z,50.63
2022-12-01T07:16:43.541Z,54.42
2022-12-01T07:19:10.753Z,57.72
2022-12-01T07:21:37.979Z,46.97
2022-12-01T07:24:05.240Z,56.03
2022-12-01T07:26:32.418Z,46.97
2022-12-01T07:28:59.570Z,55.88
2022-12-01T07:31:26.774Z,55.00
2022-12-01T07:33:56.791Z,59.10
2022-12-01T07:36:23.924Z,54.13
2022-12-01T07:38:51.106Z,77.57
2022-12-01T07:41:19.475Z,76.15
2022-12-01T07:43:49.682Z,65.40
2022-12-01T07:46:22.822Z,55.83
2022-12-01T07:48:51.569Z,47.60
2022-12-01T07:51:18.894Z,59.65
2022-12-01T07:53:46.792Z,55.38
2022-12-01T07:56:16.793Z,60.65
2022-12-01T07:58:43.937Z,63.15
2022-12-01T08:01:12.532Z,66.82
2022-12-01T08:03:40.182Z,63.28
2022-12-01T08:06:07.897Z,64.05
2022-12-01T08:08:36.026Z,67.10
2022-12-01T08:11:05.030Z,66.03
2022-12-01T08:13:32.201Z,63.88
2022-12-01T08:15:59.399Z,67.50
2022-12-01T08:18:26.542Z,68.78
2022-12-01T08:20:58.021Z,74.50
2022-12-01T08:23:25.200Z,69.15
2022-12-01T08:25:53.940Z,60.28
2022-12-01T08:28:21.978Z,63.05
2022-12-01T08:30:49.320Z,72.50
2022-12-01T08:33:16.442Z,64.03
2022-12-01T08:35:43.591Z,64.70
2022-12-01T08:38:10.870Z,67.90
2022-12-01T08:40:38.052Z,72.30
2022-12-01T08:43:05.622Z,68.25
2022-12-01T08:45:32.849Z,58.65
2022-12-01T08:47:59.993Z,68.35
2022-12-01T08:50:27.805Z,73.85
2022-12-01T08:52:55.102Z,71.13
2022-12-01T08:55:22.750Z,63.10
2022-12-01T08:57:50.054Z,65.72
2022-12-01T09:00:17.469Z,62.00
2022-12-01T09:02:44.720Z,69.47
2022-12-01T09:05:12.121Z,60.17
2022-12-01T09:07:39.426Z,73.65
2022-12-01T09:10:07.030Z,68.10
2022-12-01T09:12:34.218Z,63.47
2022-12-01T09:15:01.381Z,61.25
2022-12-01T09:17:29.114Z,67.43
2022-12-01T09:19:56.282Z,62.50
2022-12-01T09:22:23.654Z,65.88
2022-12-01T09:24:50.753Z,62.70
2022-12-01T09:27:17.852Z,68.78
2022-12-01T09:29:45.026Z,68.93
2022-12-01T09:32:12.185Z,63.65
2022-12-01T09:34:39.415Z,67.20
2022-12-01T09:37:07.609Z,61.95
2022-12-01T09:39:34.744Z,63.58
2022-12-01T09:42:33.813Z,57.45
2022-12-01T09:45:04.934Z,64.93
2022-12-01T09:47:34.610Z,65.00
2022-12-01T09:50:04.078Z,54.03
2022-12-01T09:52:51.450Z,60.75
2022-12-01T09:55:20.348Z,59.42
2022-12-01T09:57:48.332Z,63.38
2022-12-01T10:00:18.082Z,66.85
2022-12-01T10:02:45.367Z,60.40
2022-12-01T10:05:18.872Z,55.88
2022-12-01T10:07:48.194Z,54.08
2022-12-01T10:10:17.710Z,54.28
2022-12-01T10:12:47.044Z,53.08
2022-12-01T10:15:14.179Z,52.47
2022-12-01T10:17:52.992Z,48.38
2022-12-01T10:20:28.476Z,52.80
2022-12-01T10:23:01.959Z,50.75
2022-12-01T10:25:32.228Z,55.00
2022-12-01T10:27:59.310Z,50.22
2022-12-01T10:30:26.708Z,48.88
2022-12-01T10:32:58.282Z,53.28
2022-12-01T10:35:29.013Z,50.08
2022-12-01T10:37:58.933Z,53.08
2022-12-01T10:40:27.457Z,52.90
2022-12-01T10:42:55.079Z,48.88
2022-12-01T10:45:23.870Z,53.13
2022-12-01T10:48:09.599Z,46.40
2022-12-01T10:50:37.045Z,51.63
2022-12-01T10:53:04.685Z,52.38
2022-12-01T10:55:41.948Z,54.72
2022-12-01T10:58:16.202Z,53.20
2022-12-01T11:01:02.563Z,54.80
2022-12-01T11:03:32.072Z,50.83
2022-12-01T11:06:01.098Z,50.78
2022-12-01T11:08:42.233Z,51.38
2022-12-01T11:11:24.762Z,49.28
2022-12-01T11:16:34.309Z,52.10
2022-12-01T11:19:29.109Z,50.03
2022-12-01T11:24:55.501Z,48.70
2022-12-01T11:27:25.334Z,48.67
2022-12-01T11:29:56.203Z,47.80
2022-12-01T11:32:29.227Z,44.90
2022-12-01T11:35:07.663Z,44.10
2022-12-01T11:37:38.577Z,48.95
2022-12-01T11:40:13.321Z,47.88
2022-12-01T11:42:41.387Z,47.33
2022-12-01T11:45:21.326Z,48.78
2022-12-01T11:48:06.975Z,45.33
2022-12-01T11:50:38.739Z,50.25
2022-12-01T11:53:25.964Z,45.97
2022-12-01T11:55:53.115Z,51.03
2022-12-01T11:58:20.250Z,46.83
2022-12-01T12:00:49.838Z,45.45
2022-12-01T12:03:20.796Z,41.25
2022-12-01T12:06:32.259Z,40.05
2022-12-01T12:09:16.901Z,46.10
2022-12-01T12:12:08.706Z,46.90
2022-12-01T12:14:42.166Z,42.35
2022-12-01T12:17:33.247Z,44.58
2022-12-01T12:20:08.668Z,45.17
2022-12-01T12:23:00.239Z,43.00
2022-12-01T12:25:45.833Z,46.10
2022-12-01T12:28:25.155Z,45.90
2022-12-01T12:30:58.700Z,44.22
2022-12-01T12:33:32.031Z,40.88
2022-12-01T12:36:04.987Z,40.28
2022-12-01T12:38:49.061Z,41.55
2022-12-01T12:41:22.501Z,43.00
2022-12-01T12:43:49.583Z,45.97
2022-12-01T12:46:33.948Z,43.45
2022-12-01T12:49:22.453Z,38.72
2022-12-01T12:51:53.547Z,44.28
2022-12-01T12:54:39.613Z,39.35
2022-12-01T12:57:20.118Z,40.47
2022-12-01T13:00:14.614Z,39.92
2022-12-01T13:02:51.133Z,43.45
2022-12-01T13:05:25.621Z,41.45
2022-12-01T13:08:05.192Z,42.55
2022-12-01T13:10:47.527Z,39.00
2022-12-01T13:13:23.862Z,46.28
2022-12-01T13:15:52.255Z,41.05
2022-12-01T13:18:35.994Z,40.40
2022-12-01T13:21:04.494Z,40.25
2022-12-01T13:23:32.008Z,39.17
2022-12-01T13:26:00.796Z,42.63
2022-12-01T13:28:30.643Z,38.25
2022-12-01T13:30:59.715Z,43.08
2022-12-01T13:33:27.382Z,40.35
2022-12-01T13:36:22.607Z,49.05
2022-12-01T13:38:42.507Z,43.20
2022-12-01T13:41:18.882Z,42.78
2022-12-01T13:43:58.162Z,44.00
2022-12-01T13:46:37.985Z,40.30
2022-12-01T13:49:05.473Z,40.25
2022-12-01T13:51:51.660Z,36.85
2022-12-01T13:54:29.356Z,40.17
2022-12-01T13:57:04.898Z,43.38
2022-12-01T13:59:58.804Z,42.58
2022-12-01T14:02:27.421Z,44.22
2022-12-01T14:04:54.830Z,41.35
2022-12-01T14:07:24.315Z,42.83
2022-12-01T14:09:54.341Z,40.33
2022-12-01T14:12:22.888Z,45.58
2022-12-01T14:15:13.435Z,40.97
2022-12-01T14:17:41.598Z,40.15
2022-12-01T14:20:27.590Z,37.15
2022-12-01T14:23:21.347Z,42.75
2022-12-01T14:26:20.703Z,38.90
2022-12-01T14:28:56.894Z,38.30
2022-12-01T14:31:24.958Z,40.40
2022-12-01T14:33:53.606Z,39.88
2022-12-01T14:36:23.790Z,44.88
2022-12-01T14:38:50.884Z,40.33
2022-12-01T14:41:25.544Z,43.83
2022-12-01T14:44:03.942Z,39.95
2022-12-01T14:46:50.197Z,38.63
2022-12-01T14:49:20.414Z,40.08
2022-12-01T14:51:49.277Z,41.75
2022-12-01T14:54:18.783Z,38.47
2022-12-01T14:56:47.690Z,37.15
2022-12-01T14:59:23.146Z,43.75
2022-12-01T15:01:52.012Z,40.03
2022-12-01T15:04:19.768Z,39.35
2022-12-01T15:06:47.111Z,39.67
2022-12-01T15:09:33.567Z,39.58
2022-12-01T15:12:02.833Z,38.72
2022-12-01T15:14:29.945Z,42.60
2022-12-01T15:16:57.458Z,35.53
2022-12-01T15:19:32.142Z,39.95
2022-12-01T15:22:00.500Z,43.17
2022-12-01T15:24:30.902Z,41.60
2022-12-01T15:27:03.446Z,43.55
2022-12-01T15:29:32.466Z,44.00
2022-12-01T15:32:03.807Z,41.25
2022-12-01T15:34:33.591Z,43.47
2022-12-01T15:37:01.350Z,39.80
2022-12-01T15:39:32.418Z,44.05
2022-12-01T15:41:59.887Z,40.10
2022-12-01T15:47:38.570Z,43.88
2022-12-01T15:50:06.320Z,41.58
2022-12-01T15:52:42.330Z,41.88
2022-12-01T15:55:15.631Z,40.25
2022-12-01T15:57:46.845Z,40.05
2022-12-01T16:00:19.123Z,42.92
2022-12-01T16:02:52.107Z,40.65
2022-12-01T16:05:20.741Z,40.88
2022-12-01T16:08:12.745Z,47.00
2022-12-01T16:10:35.984Z,46.28
2022-12-01T16:13:32.814Z,41.05
2022-12-01T16:15:59.975Z,45.50
2022-12-01T16:18:31.327Z,44.58
2022-12-01T16:21:05.638Z,42.90
2022-12-01T16:23:33.509Z,41.05
2022-12-01T16:26:02.205Z,39.55
2022-12-01T16:28:36.472Z,35.17
2022-12-01T16:31:12.573Z,35.03
2022-12-01T16:33:42.248Z,39.05
2022-12-01T16:36:09.657Z,40.97
2022-12-01T16:38:36.936Z,38.30
2022-12-01T16:41:15.334Z,37.50
2022-12-01T16:43:59.108Z,39.65
2022-12-01T16:46:30.235Z,35.25
2022-12-01T16:48:57.675Z,34.60
2022-12-01T16:51:35.658Z,43.88
2022-12-01T16:54:10.395Z,36.28
2022-12-01T16:56:37.570Z,36.15
2022-12-01T16:59:05.006Z,39.13
2022-12-01T17:01:33.076Z,40.35
2022-12-01T17:04:04.642Z,38.35
2022-12-01T17:06:33.792Z,42.28
2022-12-01T17:09:01.035Z,51.47
2022-12-01T17:11:28.142Z,67.53
2022-12-01T17:13:55.299Z,48.97
2022-12-01T17:16:22.650Z,36.47
2022-12-01T17:18:49.890Z,41.03
2022-12-01T17:21:17.236Z,50.08
2022-12-01T17:23:44.673Z,42.53
2022-12-01T17:26:13.843Z,130.65
2022-12-01T17:28:41.092Z,31.40
2022-12-01T17:31:09.503Z,50.55
2022-12-01T17:33:37.149Z,36.60
2022-12-01T17:36:05.429Z,43.15
2022-12-01T17:38:34.903Z,38.10
2022-12-01T17:41:03.003Z,36.08
2022-12-01T17:43:30.484Z,37.05
2022-12-01T17:45:58.403Z,42.75
2022-12-01T17:48:25.697Z,41.85
2022-12-01T17:50:52.894Z,47.30
2022-12-01T17:53:20.051Z,54.28
2022-12-01T17:55:47.461Z,45.72
2022-12-01T17:58:14.698Z,41.92
2022-12-01T18:00:41.981Z,48.38
2022-12-01T18:03:09.187Z,40.47
2022-12-01T18:05:36.487Z,54.97
2022-12-01T18:08:04.711Z,50.58
2022-12-01T18:10:31.822Z,52.90
2022-12-01T18:12:59.016Z,70.50
2022-12-01T18:15:31.777Z,67.28
2022-12-01T18:18:03.089Z,65.47
2022-12-01T18:20:30.382Z,58.10
2022-12-01T18:22:57.677Z,66.30
2022-12-01T18:25:24.895Z,66.40
2022-12-01T18:27:58.154Z,80.78
2022-12-01T18:30:25.449Z,75.72
2022-12-01T18:32:52.638Z,63.50
2022-12-01T18:35:19.710Z,75.43
2022-12-01T18:37:46.961Z,65.82
2022-12-01T18:40:14.190Z,61.95
2022-12-01T18:42:41.323Z,56.33
2022-12-01T18:45:08.713Z,58.38
2022-12-01T18:47:35.997Z,60.85
2022-12-01T18:50:03.611Z,80.53
2022-12-01T18:52:30.785Z,75.57
2022-12-01T18:54:58.238Z,89.00
2022-12-01T18:57:25.344Z,68.93
2022-12-01T18:59:54.728Z,69.45
2022-12-01T19:02:21.951Z,60.38
2022-12-01T19:04:50.450Z,63.70
2022-12-01T19:07:17.970Z,53.92
2022-12-01T19:09:46.101Z,49.63
2022-12-01T19:12:13.374Z,44.72
2022-12-01T19:14:40.454Z,53.85
2022-12-01T19:17:07.633Z,60.42
2022-12-01T19:19:37.621Z,53.30
2022-12-01T19:22:10.771Z,69.18
2022-12-01T19:24:37.917Z,67.28
2022-12-01T19:27:05.183Z,58.05
2022-12-01T19:29:32.423Z,55.42
2022-12-01T19:32:01.566Z,56.88
2022-12-01T19:34:28.838Z,47.60
2022-12-01T19:36:56.746Z,53.53
2022-12-01T19:39:24.106Z,46.95
2022-12-01T19:41:52.649Z,46.08
2022-12-01T19:44:19.842Z,47.85
2022-12-01T19:46:47.009Z,45.92
2022-12-01T19:49:14.184Z,46.58
2022-12-01T19:51:41.714Z,56.42
2022-12-01T19:54:11.697Z,55.55
2022-12-01T19:56:38.925Z,51.67
2022-12-01T19:59:07.864Z,55.25
2022-12-01T20:01:34.953Z,58.25
2022-12-01T20:04:02.258Z,53.70
2022-12-01T20:06:30.526Z,54.08
2022-12-01T20:08:58.326Z,56.47
2022-12-01T20:11:25.917Z,61.38
2022-12-01T20:13:53.206Z,54.50
2022-12-01T20:16:21.870Z,51.00
2022-12-01T20:18:49.460Z,48.50
2022-12-01T20:21:19.319Z,56.92
2022-12-01T20:23:50.701Z,54.20
2022-12-01T20:26:18.761Z,58.40
2022-12-01T20:28:46.982Z,54.97
2022-12-01T20:31:24.696Z,47.55
2022-12-01T20:33:52.665Z,42.22
2022-12-01T20:36:20.289Z,53.42
2022-12-01T20:38:47.464Z,48.08
2022-12-01T20:41:14.955Z,51.92
2022-12-01T20:43:42.205Z,61.30
2022-12-01T20:46:09.551Z,61.92
2022-12-01T20:48:36.818Z,49.25
2022-12-01T20:51:05.239Z,43.95
2022-12-01T20:53:32.422Z,44.20
2022-12-01T20:56:02.838Z,52.95
2022-12-01T20:58:33.277Z,47.83
2022-12-01T21:01:11.981Z,48.83
2022-12-01T21:03:40.028Z,49.75
2022-12-01T21:06:07.696Z,52.97
2022-12-01T21:08:34.874Z,53.15
2022-12-01T21:11:13.082Z,50.97
2022-12-01T21:13:42.479Z,56.63
2022-12-01T21:16:18.951Z,56.20
2022-12-01T21:18:48.947Z,58.67
2022-12-01T21:21:27.486Z,48.10
2022-12-01T21:24:09.809Z,53.20
2022-12-01T21:26:38.170Z,53.65
2022-12-01T21:29:18.999Z,47.88
2022-12-01T21:31:47.429Z,43.47
2022-12-01T21:34:35.626Z,51.03
2022-12-01T21:37:03.114Z,51.13
2022-12-01T21:39:31.032Z,46.45
2022-12-01T21:42:07.533Z,43.38
2022-12-01T21:44:37.399Z,41.95
2022-12-01T21:47:14.012Z,45.42
2022-12-01T21:49:41.281Z,52.10
2022-12-01T21:52:17.539Z,51.22
2022-12-01T21:54:44.763Z,53.97
2022-12-01T21:57:26.993Z,51.53
2022-12-01T21:59:57.565Z,49.45
2022-12-01T22:02:37.344Z,48.38
2022-12-01T22:05:17.115Z,47.70
2022-12-01T22:07:44.423Z,45.67
2022-12-01T22:10:30.763Z,47.53
2022-12-01T22:12:57.935Z,43.70
2022-12-01T22:15:41.080Z,46.17
2022-12-01T22:20:35.441Z,43.13
2022-12-01T22:23:05.817Z,54.42
2022-12-01T22:25:33.096Z,48.83
2022-12-01T22:28:01.424Z,45.17
2022-12-01T22:30:28.554Z,48.75
2022-12-01T22:33:00.423Z,49.35
2022-12-01T22:35:39.468Z,52.33
2022-12-01T22:38:06.538Z,57.33
2022-12-01T22:40:36.183Z,56.83
2022-12-01T22:43:17.884Z,58.72
2022-12-01T22:45:46.133Z,58.72
2022-12-01T22:48:42.781Z,49.28
2022-12-01T22:51:17.024Z,47.50
2022-12-01T22:53:45.652Z,56.22
2022-12-01T22:56:31.241Z,55.88
2022-12-01T22:58:58.678Z,51.30
2022-12-01T23:01:26.177Z,54.22
2022-12-01T23:04:20.094Z,57.22
2022-12-01T23:06:52.178Z,62.10
2022-12-01T23:09:19.985Z,57.13
2022-12-01T23:11:52.797Z,57.90
2022-12-01T23:14:24.091Z,67.07
2022-12-01T23:17:01.140Z,62.17
2022-12-01T23:19:28.413Z,64.97
2022-12-01T23:21:55.502Z,61.55
2022-12-01T23:24:22.633Z,57.95
2022-12-01T23:26:49.805Z,61.97
2022-12-01T23:29:16.951Z,68.18
2022-12-01T23:31:44.420Z,65.38
2022-12-01T23:34:13.859Z,70.82
2022-12-01T23:36:41.376Z,73.32
2022-12-01T23:39:12.450Z,69.57
2022-12-01T23:41:41.346Z,65.03
2022-12-01T23:44:19.318Z,63.33
2022-12-01T23:46:47.120Z,61.92
2022-12-01T23:49:16.110Z,65.80
2022-12-01T23:51:48.458Z,66.57
2022-12-01T23:54:18.600Z,61.58
2022-12-01T23:56:49.170Z,67.55
2022-12-01T23:59:16.283Z,73.82
